»·PEaware :: N458WA KPRC-KBLH

N458WA :: KPRC-KBLH

FLIGHT INFORMATION

Flight Status: Arrived
Operator: Privately registered:
United States
More flights under this callsign
Pilot: Charles S. (11412)
Aircraft: BEECH AIRCRAFT BARON
(BE58)
More flights by this aircraft type
Origin: KPRC Love
United States
Destination: KBLH Blythe
United States
More flights between these airports :: More routes between these airports
Route:
File this flight plan on PilotEdge
Remarks:
Altitude:
(Current/Filed)
8,500ft
Speed:
(Current/Filed)
115kts
Departed: 14-Dec-17 04:45 PM
Arrived: 14-Dec-17 05:28 PM
Distance/Time
Traveled:
130nm/0:43
Distance/Time
To Go:
Arrived

Flight Plot

Page will automatically refresh every two minutes.

Flight plan parsing failed; only flown route is shown


Map Options




Map Legend


Flown Route
Filed Route
Departure Airport
Arrival Airport
Navaid (VOR, NDB)
Fix

Horizontal Profiles

Position Reports

Time Latitude Longitude Heading Altitude Ground
Speed
14-Dec-17 16:40 34.653929 -112.422746 129 4989ft 0kts
14-Dec-17 16:41 34.653929 -112.422746 129 4989ft 0kts
14-Dec-17 16:42 34.653929 -112.422746 129 4989ft 0kts
14-Dec-17 16:43 34.653929 -112.422746 129 4989ft 0kts
14-Dec-17 16:44 34.653929 -112.422746 129 4989ft 0kts
14-Dec-17 16:45 34.653929 -112.422746 129 4989ft 0kts
14-Dec-17 16:46 34.653929 -112.422746 129 4989ft 0kts
14-Dec-17 16:47 34.653928 -112.422745 128 4989ft 0kts
14-Dec-17 16:48 34.653937 -112.422374 70 4989ft 5kts
14-Dec-17 16:49 34.656865 -112.421442 43 4973ft 0kts
14-Dec-17 16:50 34.657119 -112.419887 41 4970ft 32kts
14-Dec-17 16:51 34.676744 -112.410911 314 5463ft 120kts
14-Dec-17 16:52 34.666407 -112.457446 242 6451ft 150kts
14-Dec-17 16:53 34.646219 -112.501998 242 7499ft 151kts
14-Dec-17 16:54 34.625971 -112.547015 242 8475ft 153kts
14-Dec-17 16:55 34.601936 -112.600410 242 8498ft 199kts
14-Dec-17 16:56 34.581871 -112.644871 242 8492ft 207kts
14-Dec-17 16:57 34.559333 -112.694731 241 8486ft 208kts
14-Dec-17 16:58 34.531654 -112.755880 241 8486ft 209kts
14-Dec-17 16:59 34.503703 -112.817547 241 8486ft 209kts
14-Dec-17 17:00 34.475582 -112.879499 241 8487ft 210kts
14-Dec-17 17:01 34.447405 -112.941463 242 8488ft 211kts
14-Dec-17 17:02 34.419004 -113.003811 242 8488ft 212kts
14-Dec-17 17:03 34.390482 -113.066319 242 8489ft 213kts
14-Dec-17 17:04 34.361721 -113.129241 242 8489ft 213kts
14-Dec-17 17:05 34.333006 -113.191916 242 8489ft 214kts
14-Dec-17 17:06 34.304244 -113.254600 242 8490ft 214kts
14-Dec-17 17:07 34.275339 -113.317423 243 8484ft 214kts
14-Dec-17 17:08 34.246463 -113.380096 244 8470ft 213kts
14-Dec-17 17:09 34.217791 -113.442178 245 8452ft 212kts
14-Dec-17 17:10 34.189319 -113.503827 246 8437ft 209kts
14-Dec-17 17:11 34.160939 -113.565195 245 8437ft 209kts
14-Dec-17 17:12 34.132943 -113.625519 246 8542ft 205kts
14-Dec-17 17:13 34.104897 -113.685977 245 8542ft 208kts
14-Dec-17 17:14 34.076551 -113.746828 245 8544ft 209kts
14-Dec-17 17:15 34.048060 -113.807960 245 8544ft 209kts
14-Dec-17 17:16 34.019543 -113.868987 244 8544ft 210kts
14-Dec-17 17:17 33.990869 -113.930265 245 8527ft 210kts
14-Dec-17 17:18 33.962310 -113.991237 245 8528ft 209kts
14-Dec-17 17:19 33.933488 -114.052643 245 8521ft 211kts
14-Dec-17 17:20 33.904529 -114.114226 244 8511ft 211kts
14-Dec-17 17:21 33.875659 -114.175526 244 8488ft 210kts
14-Dec-17 17:22 33.847206 -114.236423 244 8478ft 210kts
14-Dec-17 17:23 33.818369 -114.297571 244 8477ft 210kts
14-Dec-17 17:24 33.789525 -114.358494 244 8477ft 210kts
14-Dec-17 17:25 33.760694 -114.419280 244 8478ft 210kts
14-Dec-17 17:26 33.733365 -114.476807 244 8478ft 210kts
14-Dec-17 17:27 33.697480 -114.533818 220 8023ft 235kts
14-Dec-17 17:28 33.645567 -114.577041 215 6973ft 230kts
14-Dec-17 17:29 33.595667 -114.614468 197 4369ft 189kts
14-Dec-17 17:29 33.577931 -114.649341 261 2331ft 162kts
14-Dec-17 17:31 33.573406 -114.703880 277 1354ft 98kts
14-Dec-17 17:31 33.588564 -114.716786 358 877ft 85kts
14-Dec-17 17:32 33.611521 -114.716876 356 469ft 86kts
14-Dec-17 17:34 33.619248 -114.716703 141 393ft 23kts
14-Dec-17 17:34 33.614937 -114.714766 98 391ft 19kts
14-Dec-17 17:35 33.617977 -114.716748 358 391ft 77kts
14-Dec-17 17:36 33.607590 -114.716771 357 541ft 84kts
14-Dec-17 17:37 33.613584 -114.716818 358 428ft 87kts
14-Dec-17 17:38 33.617184 -114.716769 357 392ft 79kts

Navigation Log

Ident Type
Flight plan parsing failed, navigation log unavailable